Peardale, California
Current Conditions -  °F | °C
As of 6:05 AM on Thursday 27 Nov 2014 (Local Time) from KGOO Reporting Station
Clear Clear  
Wind Chill: 59°   Ceiling: Unl
Heat Index: 59°   Visibility: 10mi
Dew Point: 28°   Wind: 8mph
Humidity: 31%   Direction: 120°ESE
Pressure: 30.22"   Gusts: NA
Location:  39.2183°N, 120.924°W
Report Text: KGOO 271405Z AUTO 12007KT 10SM CLR 15/M02 A3022 RMK AO1
Loading
Personal Weather Stations






























Interactive Weather Map New forecast layout! Learn more

10-Day Weather Forecast

Advertisements
Track Severe Weather on mobile